createdAt,value
2023-03-26T00:01:41.643Z,100578.75
2023-03-26T00:04:10.661Z,100579.72
2023-03-26T00:06:40.425Z,100587.22
2023-03-26T00:09:13.425Z,100586.66
2023-03-26T00:11:43.381Z,100581.88
2023-03-26T00:14:13.970Z,100575.06
2023-03-26T00:16:42.772Z,100572.38
2023-03-26T00:19:12.726Z,100570.31
2023-03-26T00:21:41.649Z,100563.97
2023-03-26T00:24:14.985Z,100570.47
2023-03-26T00:26:44.812Z,100571.34
2023-03-26T00:29:13.850Z,100570.41
2023-03-26T00:31:45.919Z,100567.25
2023-03-26T00:34:18.499Z,100563.00
2023-03-26T00:36:47.484Z,100561.47
2023-03-26T00:39:17.777Z,100562.88
2023-03-26T00:41:46.595Z,100563.97
2023-03-26T00:44:16.247Z,100555.38
2023-03-26T00:46:44.726Z,100552.53
2023-03-26T00:49:14.816Z,100542.34
2023-03-26T00:51:43.526Z,100548.75
2023-03-26T00:54:12.704Z,100550.34
2023-03-26T00:56:41.284Z,100542.41
2023-03-26T00:59:09.771Z,100537.06
2023-03-26T01:01:38.313Z,100541.56
2023-03-26T01:04:31.921Z,100537.97
2023-03-26T01:07:22.577Z,100530.91
2023-03-26T01:09:51.709Z,100520.91
2023-03-26T01:12:24.017Z,100524.47
2023-03-26T01:14:56.731Z,100519.28
2023-03-26T01:17:26.429Z,100507.09
2023-03-26T01:20:05.635Z,100503.81
2023-03-26T01:22:36.616Z,100498.75
2023-03-26T01:25:07.226Z,100490.09
2023-03-26T01:27:43.077Z,100491.03
2023-03-26T01:30:34.758Z,100483.28
2023-03-26T01:33:16.177Z,100483.56
2023-03-26T01:36:07.755Z,100487.16
2023-03-26T01:38:53.625Z,100480.91
2023-03-26T01:41:41.859Z,100473.59
2023-03-26T01:44:21.111Z,100476.25
2023-03-26T01:46:51.264Z,100474.69
2023-03-26T01:49:19.754Z,100473.28
2023-03-26T01:51:48.372Z,100471.41
2023-03-26T01:54:22.039Z,100462.50
2023-03-26T01:56:53.532Z,100469.38
2023-03-26T01:59:50.483Z,100459.63
2023-03-26T02:02:18.974Z,100451.97
2023-03-26T02:04:53.850Z,100444.06
2023-03-26T02:07:39.622Z,100441.81
2023-03-26T02:10:17.387Z,100432.44
2023-03-26T02:12:46.121Z,100433.94
2023-03-26T02:15:14.657Z,100424.75
2023-03-26T02:17:43.301Z,100431.03
2023-03-26T02:20:14.523Z,100413.97
2023-03-26T02:22:46.064Z,100421.03
2023-03-26T02:25:18.902Z,100410.78
2023-03-26T02:27:49.609Z,100399.88
2023-03-26T02:30:25.559Z,100399.34
2023-03-26T02:32:54.416Z,100407.25
2023-03-26T02:35:23.131Z,100397.38
2023-03-26T02:37:51.639Z,100402.63
2023-03-26T02:40:22.237Z,100400.31
2023-03-26T02:42:50.859Z,100388.22
2023-03-26T02:45:19.268Z,100387.91
2023-03-26T02:47:47.697Z,100385.63
2023-03-26T02:50:16.439Z,100377.13
2023-03-26T02:52:45.333Z,100373.19
2023-03-26T02:55:13.851Z,100366.97
2023-03-26T02:57:42.408Z,100368.91
2023-03-26T03:00:14.294Z,100361.97
2023-03-26T03:02:44.472Z,100359.34
2023-03-26T03:05:13.952Z,100351.41
2023-03-26T03:07:42.370Z,100353.38
2023-03-26T03:10:13.774Z,100341.28
2023-03-26T03:12:42.688Z,100336.53
2023-03-26T03:15:11.937Z,100342.47
2023-03-26T03:17:41.470Z,100340.78
2023-03-26T03:20:10.249Z,100337.31
2023-03-26T03:22:38.803Z,100327.47
2023-03-26T03:25:14.320Z,100324.88
2023-03-26T03:27:43.786Z,100322.19
2023-03-26T03:30:13.627Z,100318.06
2023-03-26T03:32:42.252Z,100313.72
2023-03-26T03:35:10.836Z,100307.22
2023-03-26T03:37:39.390Z,100307.81
2023-03-26T03:40:10.993Z,100318.88
2023-03-26T03:42:39.472Z,100308.59
2023-03-26T03:45:08.629Z,100318.81
2023-03-26T03:47:37.197Z,100299.94
2023-03-26T03:50:06.650Z,100305.19
2023-03-26T03:52:35.185Z,100296.47
2023-03-26T03:55:03.969Z,100292.31
2023-03-26T03:57:33.513Z,100288.97
2023-03-26T04:00:02.816Z,100279.88
2023-03-26T04:02:34.954Z,100282.78
2023-03-26T04:05:06.020Z,100284.09
2023-03-26T04:07:34.567Z,100267.88
2023-03-26T04:10:04.091Z,100266.38
2023-03-26T04:12:32.608Z,100260.81
2023-03-26T04:15:01.148Z,100250.38
2023-03-26T04:17:30.616Z,100239.78
2023-03-26T04:20:10.342Z,100234.78
2023-03-26T04:22:39.730Z,100229.34
2023-03-26T04:25:09.902Z,100235.91
2023-03-26T04:27:41.795Z,100220.78
2023-03-26T04:30:15.556Z,100220.78
2023-03-26T04:32:45.011Z,100209.63
2023-03-26T04:35:16.652Z,100203.19
2023-03-26T04:37:46.107Z,100199.81
2023-03-26T04:40:21.955Z,100190.94
2023-03-26T04:42:50.443Z,100189.41
2023-03-26T04:45:22.712Z,100180.81
2023-03-26T04:47:51.512Z,100178.13
2023-03-26T04:50:20.026Z,100177.56
2023-03-26T04:52:48.687Z,100177.44
2023-03-26T04:55:47.073Z,100175.28
2023-03-26T04:58:16.077Z,100173.78
2023-03-26T05:00:44.569Z,100175.22
2023-03-26T05:03:13.971Z,100166.09
2023-03-26T05:05:42.771Z,100161.31
2023-03-26T05:08:11.350Z,100161.28
2023-03-26T05:10:39.770Z,100156.16
2023-03-26T05:13:08.347Z,100151.38
2023-03-26T05:15:36.743Z,100152.03
2023-03-26T05:18:05.334Z,100142.09
2023-03-26T05:20:34.357Z,100149.09
2023-03-26T05:23:02.917Z,100143.47
2023-03-26T05:25:31.690Z,100137.66
2023-03-26T05:28:01.053Z,100134.59
2023-03-26T05:30:29.578Z,100124.84
2023-03-26T05:32:58.051Z,100132.38
2023-03-26T05:35:26.613Z,100121.75
2023-03-26T05:37:55.104Z,100128.56
2023-03-26T05:40:23.572Z,100116.91
2023-03-26T05:42:51.981Z,100112.94
2023-03-26T05:45:22.383Z,100096.38
2023-03-26T05:47:51.298Z,100095.94
2023-03-26T05:50:19.921Z,100095.53
2023-03-26T05:52:48.387Z,100098.63
2023-03-26T05:55:18.414Z,100092.66
2023-03-26T05:57:46.873Z,100088.09
2023-03-26T06:00:16.375Z,100081.00
2023-03-26T06:02:46.651Z,100081.88
2023-03-26T06:05:15.122Z,100067.91
2023-03-26T06:07:43.572Z,100061.88
2023-03-26T06:10:18.484Z,100066.06
2023-03-26T06:12:47.551Z,100065.69
2023-03-26T06:15:16.253Z,100070.03
2023-03-26T06:17:44.853Z,100067.66
2023-03-26T06:20:13.690Z,100068.44
2023-03-26T06:22:42.119Z,100055.63
2023-03-26T06:25:10.694Z,100053.09
2023-03-26T06:27:39.382Z,100049.59
2023-03-26T06:30:08.496Z,100053.47
2023-03-26T06:32:36.983Z,100051.00
2023-03-26T06:35:06.367Z,100054.91
2023-03-26T06:37:34.931Z,100057.25
2023-03-26T06:40:04.459Z,100052.66
2023-03-26T06:43:08.051Z,100054.75
2023-03-26T06:45:21.879Z,100048.13
2023-03-26T06:47:50.287Z,100055.41
2023-03-26T06:50:19.410Z,100056.31
2023-03-26T06:52:47.827Z,100050.47
2023-03-26T06:55:16.510Z,100060.63
2023-03-26T06:57:49.086Z,100057.97
2023-03-26T07:00:18.976Z,100062.53
2023-03-26T07:02:47.680Z,100057.34
2023-03-26T07:05:16.339Z,100054.28
2023-03-26T07:07:45.972Z,100048.25
2023-03-26T07:10:15.167Z,100049.50
2023-03-26T07:12:43.980Z,100041.44
2023-03-26T07:15:12.368Z,100042.28
2023-03-26T07:17:40.877Z,100040.91
2023-03-26T07:20:10.749Z,100034.06
2023-03-26T07:22:39.583Z,100037.09
2023-03-26T07:25:09.074Z,100029.22
2023-03-26T07:27:50.883Z,100027.31
2023-03-26T07:30:34.384Z,100033.75
2023-03-26T07:33:14.330Z,100022.47
2023-03-26T07:35:56.855Z,100022.44
2023-03-26T07:38:54.960Z,100027.25
2023-03-26T07:41:35.894Z,100023.91
2023-03-26T07:44:41.993Z,100019.19
2023-03-26T07:47:26.159Z,100016.88
2023-03-26T07:49:57.831Z,100010.44
2023-03-26T07:52:27.517Z,100010.66
2023-03-26T07:54:56.701Z,100013.00
2023-03-26T07:57:31.271Z,100005.53
2023-03-26T08:00:12.177Z,100004.38
2023-03-26T08:02:53.098Z,100004.38
2023-03-26T08:05:30.434Z,99998.19
2023-03-26T08:08:07.951Z,100007.69
2023-03-26T08:11:23.150Z,99997.56
2023-03-26T08:14:01.088Z,99998.81
2023-03-26T08:16:54.270Z,99996.09
2023-03-26T08:19:40.961Z,99990.75
2023-03-26T08:22:26.382Z,99991.59
2023-03-26T08:25:47.122Z,99992.41
2023-03-26T08:28:35.343Z,99988.44
2023-03-26T08:31:04.507Z,99981.59
2023-03-26T08:33:35.967Z,99985.31
2023-03-26T08:36:06.060Z,99984.72
2023-03-26T08:38:34.632Z,99982.22
2023-03-26T08:41:12.268Z,99983.09
2023-03-26T08:43:58.214Z,99984.31
2023-03-26T08:46:55.540Z,99988.06
2023-03-26T08:49:36.028Z,99988.28
2023-03-26T08:52:25.867Z,99984.56
2023-03-26T08:55:14.586Z,99987.22
2023-03-26T08:58:09.228Z,99973.75
2023-03-26T09:00:58.379Z,99984.09
2023-03-26T09:04:22.525Z,99982.06
2023-03-26T09:07:37.910Z,99977.50
2023-03-26T09:10:24.816Z,99981.81
2023-03-26T09:13:14.669Z,99979.16
2023-03-26T09:16:14.851Z,99977.09
2023-03-26T09:19:25.067Z,99979.38
2023-03-26T09:22:14.044Z,99978.75
2023-03-26T09:25:01.084Z,99975.81
2023-03-26T09:27:48.379Z,99983.09
2023-03-26T09:30:54.846Z,99977.91
2023-03-26T09:33:42.700Z,99978.97
2023-03-26T09:36:40.894Z,99973.38
2023-03-26T09:39:15.789Z,99976.25
2023-03-26T09:42:06.111Z,99984.13
2023-03-26T09:45:08.910Z,99983.53
2023-03-26T09:47:44.795Z,99983.31
2023-03-26T09:50:29.587Z,99983.72
2023-03-26T09:53:26.787Z,99980.19
2023-03-26T09:56:23.477Z,99986.22
2023-03-26T09:59:01.118Z,99983.28
2023-03-26T10:02:12.216Z,99984.97
2023-03-26T10:05:04.791Z,99990.31
2023-03-26T10:07:50.326Z,99996.19
2023-03-26T10:10:41.634Z,99993.06
2023-03-26T10:13:37.617Z,99990.16
2023-03-26T10:16:26.155Z,99997.22
2023-03-26T10:19:26.118Z,99991.19
2023-03-26T10:22:24.603Z,99988.09
2023-03-26T10:25:22.318Z,99994.72
2023-03-26T10:28:00.212Z,100001.16
2023-03-26T10:30:56.658Z,100003.88
2023-03-26T10:33:36.712Z,100009.88
2023-03-26T10:36:27.605Z,100006.13
2023-03-26T10:39:02.010Z,100012.78
2023-03-26T10:41:55.307Z,100005.75
2023-03-26T10:44:45.817Z,100009.44
2023-03-26T10:47:20.177Z,100015.25
2023-03-26T10:50:10.107Z,100006.13
2023-03-26T10:52:44.155Z,100006.13
2023-03-26T10:55:27.543Z,100014.00
2023-03-26T10:58:00.623Z,100012.56
2023-03-26T11:00:30.103Z,100016.28
2023-03-26T11:03:27.821Z,100016.94
2023-03-26T11:06:13.520Z,100008.22
2023-03-26T11:08:44.810Z,100013.81
2023-03-26T11:11:38.818Z,100016.94
2023-03-26T11:14:35.263Z,100012.97
2023-03-26T11:17:40.198Z,100020.66
2023-03-26T11:20:24.257Z,100019.81
2023-03-26T11:23:11.852Z,100020.66
2023-03-26T11:25:57.546Z,100020.03
2023-03-26T11:28:32.145Z,100019.22
2023-03-26T11:31:22.515Z,100024.59
2023-03-26T11:33:56.924Z,100020.25
2023-03-26T11:36:31.629Z,100032.06
2023-03-26T11:39:04.629Z,100019.84
2023-03-26T11:41:33.214Z,100027.28
2023-03-26T11:44:10.985Z,100035.19
2023-03-26T11:46:44.272Z,100032.50
2023-03-26T11:49:17.603Z,100030.00
2023-03-26T11:51:47.869Z,100035.81
2023-03-26T11:54:17.796Z,100038.72
2023-03-26T11:57:04.558Z,100039.34
2023-03-26T11:59:57.944Z,100031.31
2023-03-26T12:02:38.065Z,100036.28
2023-03-26T12:05:46.909Z,100036.38
2023-03-26T12:08:26.650Z,100042.47
2023-03-26T12:11:07.083Z,100041.16
2023-03-26T12:13:41.851Z,100042.97
2023-03-26T12:16:14.492Z,100037.91
2023-03-26T12:18:45.526Z,100039.09
2023-03-26T12:21:19.215Z,100035.16
2023-03-26T12:23:58.821Z,100041.19
2023-03-26T12:26:34.737Z,100045.75
2023-03-26T12:29:12.566Z,100041.00
2023-03-26T12:31:50.339Z,100044.88
2023-03-26T12:34:21.094Z,100040.75
2023-03-26T12:36:55.251Z,100043.28
2023-03-26T12:40:07.066Z,100047.53
2023-03-26T12:44:46.164Z,100053.63
2023-03-26T12:45:48.401Z,100059.44
2023-03-26T12:48:37.697Z,100057.38
2023-03-26T12:51:23.632Z,100052.22
2023-03-26T12:54:02.172Z,100061.53
2023-03-26T12:56:38.720Z,100068.38
2023-03-26T12:59:22.184Z,100067.06
2023-03-26T13:02:34.391Z,100065.41
2023-03-26T13:05:39.318Z,100076.00
2023-03-26T13:08:39.447Z,100070.59
2023-03-26T13:11:23.088Z,100074.91
2023-03-26T13:14:13.380Z,100072.06
2023-03-26T13:16:44.793Z,100073.03
2023-03-26T13:19:22.496Z,100083.13
2023-03-26T13:22:09.265Z,100086.66
2023-03-26T13:24:44.041Z,100091.00
2023-03-26T13:27:44.548Z,100084.13
2023-03-26T13:30:54.659Z,100085.25
2023-03-26T13:33:34.296Z,100089.16
2023-03-26T13:36:24.470Z,100094.50
2023-03-26T13:39:03.182Z,100090.16
2023-03-26T13:41:56.287Z,100095.34
2023-03-26T13:45:05.102Z,100088.75
2023-03-26T13:47:38.480Z,100098.09
2023-03-26T13:50:40.833Z,100099.50
2023-03-26T13:53:24.366Z,100094.88
2023-03-26T13:55:59.212Z,100103.03
2023-03-26T13:59:03.527Z,100101.94
2023-03-26T14:01:36.284Z,100103.66
2023-03-26T14:04:10.706Z,100117.81
2023-03-26T14:06:57.471Z,100112.09
2023-03-26T14:09:38.214Z,100120.88
2023-03-26T14:12:22.148Z,100107.78
2023-03-26T14:14:56.921Z,100121.72
2023-03-26T14:17:33.081Z,100109.94
2023-03-26T14:20:42.413Z,100145.59
2023-03-26T14:23:16.946Z,100140.25
2023-03-26T14:26:04.258Z,100137.69
2023-03-26T14:28:51.537Z,100147.94
2023-03-26T14:32:01.057Z,100158.88
2023-03-26T14:34:54.384Z,100151.63
2023-03-26T14:37:41.777Z,100158.22
2023-03-26T14:40:15.011Z,100153.69
2023-03-26T14:43:05.166Z,100160.66
2023-03-26T14:45:58.692Z,100170.41
2023-03-26T14:48:33.367Z,100170.91
2023-03-26T14:51:19.216Z,100173.13
2023-03-26T14:53:52.837Z,100179.47
2023-03-26T14:56:24.427Z,100188.06
2023-03-26T14:59:31.226Z,100186.59
2023-03-26T15:02:02.852Z,100203.03
2023-03-26T15:04:49.902Z,100215.94
2023-03-26T15:07:37.118Z,100220.94
2023-03-26T15:10:22.688Z,100240.06
2023-03-26T15:13:32.635Z,100238.22
2023-03-26T15:16:11.800Z,100236.94
2023-03-26T15:19:04.042Z,100237.81
2023-03-26T15:22:12.881Z,100248.31
2023-03-26T15:25:15.701Z,100256.34
2023-03-26T15:27:57.891Z,100256.78
2023-03-26T15:30:53.798Z,100260.38
2023-03-26T15:33:54.354Z,100268.09
2023-03-26T15:36:44.747Z,100275.44
2023-03-26T15:39:38.126Z,100280.16
2023-03-26T15:42:21.898Z,100283.03
2023-03-26T15:44:54.031Z,100294.41
2023-03-26T15:47:31.472Z,100289.25
2023-03-26T15:50:29.504Z,100300.28
2023-03-26T15:53:01.154Z,100306.91
2023-03-26T15:55:36.647Z,100308.13
2023-03-26T15:58:12.191Z,100312.03
2023-03-26T16:00:57.199Z,100321.03
2023-03-26T16:03:39.611Z,100314.59
2023-03-26T16:06:27.962Z,100328.59
2023-03-26T16:09:32.520Z,100331.19
2023-03-26T16:12:27.025Z,100327.56
2023-03-26T16:15:09.430Z,100332.13
2023-03-26T16:17:56.782Z,100337.84
2023-03-26T16:20:34.930Z,100330.94
2023-03-26T16:23:06.165Z,100339.75
2023-03-26T16:25:52.777Z,100348.97
2023-03-26T16:28:33.945Z,100357.94
2023-03-26T16:31:34.758Z,100362.00
2023-03-26T16:34:35.882Z,100371.06
2023-03-26T16:37:25.917Z,100379.00
2023-03-26T16:39:54.748Z,100394.69
2023-03-26T16:42:38.546Z,100393.31
2023-03-26T16:45:35.680Z,100398.47
2023-03-26T16:48:24.359Z,100413.28
2023-03-26T16:51:24.412Z,100418.41
2023-03-26T16:54:12.991Z,100433.25
2023-03-26T16:56:44.434Z,100433.50
2023-03-26T17:00:06.765Z,100440.56
2023-03-26T17:02:49.162Z,100461.97
2023-03-26T17:05:34.335Z,100466.25
2023-03-26T17:08:36.440Z,100475.69
2023-03-26T17:11:21.545Z,100482.69
2023-03-26T17:13:52.895Z,100489.22
2023-03-26T17:16:32.365Z,100503.34
2023-03-26T17:19:19.010Z,100493.97
2023-03-26T17:22:00.774Z,100506.28
2023-03-26T17:24:47.872Z,100524.56
2023-03-26T17:27:34.146Z,100531.53
2023-03-26T17:30:40.394Z,100536.22
2023-03-26T17:33:35.234Z,100541.19
2023-03-26T17:36:13.036Z,100555.31
2023-03-26T17:38:47.515Z,100547.09
2023-03-26T17:42:08.296Z,100560.69
2023-03-26T17:44:42.081Z,100571.91
2023-03-26T17:47:20.840Z,100580.69
2023-03-26T17:49:53.590Z,100592.44
2023-03-26T17:52:41.578Z,100595.03
2023-03-26T17:55:17.073Z,100599.28
2023-03-26T17:57:53.291Z,100602.72
2023-03-26T18:00:25.134Z,100614.84
2023-03-26T18:03:01.402Z,100629.56
2023-03-26T18:05:30.955Z,100627.22
2023-03-26T18:08:14.709Z,100629.34
2023-03-26T18:10:43.224Z,100640.34
2023-03-26T18:13:42.610Z,100644.34
2023-03-26T18:16:25.397Z,100651.31
2023-03-26T18:19:00.700Z,100653.34
2023-03-26T18:21:35.926Z,100661.44
2023-03-26T18:24:14.138Z,100667.66
2023-03-26T18:26:46.972Z,100674.84
2023-03-26T18:29:22.056Z,100677.38
2023-03-26T18:32:02.651Z,100693.13
2023-03-26T18:34:34.018Z,100697.53
2023-03-26T18:37:17.841Z,100703.00
2023-03-26T18:40:12.853Z,100711.28
2023-03-26T18:42:45.645Z,100722.09
2023-03-26T18:45:23.467Z,100727.75
2023-03-26T18:47:54.672Z,100738.41
2023-03-26T18:50:28.102Z,100741.25
2023-03-26T18:52:59.414Z,100740.56
2023-03-26T18:55:29.587Z,100754.00
2023-03-26T18:57:58.197Z,100771.94
2023-03-26T19:00:30.221Z,100758.69
2023-03-26T19:03:07.332Z,100776.00
2023-03-26T19:05:37.401Z,100766.41
2023-03-26T19:08:06.639Z,100773.88
2023-03-26T19:10:36.725Z,100783.88
2023-03-26T19:13:05.452Z,100792.59
2023-03-26T19:15:35.789Z,100796.53
2023-03-26T19:18:09.671Z,100803.31
2023-03-26T19:20:50.797Z,100812.56
2023-03-26T19:23:22.405Z,100832.66
2023-03-26T19:25:56.296Z,100828.75
2023-03-26T19:28:26.210Z,100842.53
2023-03-26T19:30:58.370Z,100842.41
2023-03-26T19:33:34.804Z,100850.31
2023-03-26T19:36:29.622Z,100851.41
2023-03-26T19:39:01.062Z,100851.78
2023-03-26T19:41:39.126Z,100860.06
2023-03-26T19:44:16.630Z,100867.31
2023-03-26T19:46:53.820Z,100879.75
2023-03-26T19:49:42.218Z,100891.34
2023-03-26T19:52:19.231Z,100898.66
2023-03-26T19:55:00.191Z,100900.19
2023-03-26T19:57:34.656Z,100909.28
2023-03-26T20:00:09.198Z,100913.66
2023-03-26T20:02:37.905Z,100921.53
2023-03-26T20:05:18.139Z,100909.06
2023-03-26T20:07:46.657Z,100922.44
2023-03-26T20:10:15.861Z,100935.09
2023-03-26T20:12:44.795Z,100946.84
2023-03-26T20:15:19.291Z,100943.50
2023-03-26T20:17:54.387Z,100951.91
2023-03-26T20:20:27.641Z,100955.09
2023-03-26T20:22:56.907Z,100959.50
2023-03-26T20:25:36.082Z,100969.91
2023-03-26T20:28:04.717Z,100965.16
2023-03-26T20:30:37.731Z,100963.06
2023-03-26T20:33:14.911Z,100963.06
2023-03-26T20:35:43.599Z,100977.59
2023-03-26T20:38:12.333Z,100978.53
2023-03-26T20:40:44.669Z,100978.91
2023-03-26T20:43:16.179Z,100989.28
2023-03-26T20:45:45.726Z,100993.31
2023-03-26T20:48:15.025Z,100999.78
2023-03-26T20:50:50.725Z,100995.53
2023-03-26T20:53:20.423Z,101013.28
2023-03-26T20:55:51.523Z,101000.16
2023-03-26T20:58:31.451Z,101009.69
2023-03-26T21:01:01.847Z,101010.53
2023-03-26T21:03:30.897Z,101023.59
2023-03-26T21:06:05.175Z,101016.31
2023-03-26T21:08:43.508Z,101031.06
2023-03-26T21:12:00.254Z,101028.97
2023-03-26T21:14:55.816Z,101040.81
2023-03-26T21:17:30.046Z,101053.25
2023-03-26T21:20:08.222Z,101056.09
2023-03-26T21:23:03.992Z,101062.06
2023-03-26T21:25:48.854Z,101066.81
2023-03-26T21:28:41.379Z,101071.91
2023-03-26T21:31:20.971Z,101079.34
2023-03-26T21:33:50.759Z,101081.09
2023-03-26T21:36:23.067Z,101089.72
2023-03-26T21:38:54.633Z,101098.81
2023-03-26T21:41:36.475Z,101110.22
2023-03-26T21:44:05.386Z,101120.03
2023-03-26T21:46:34.301Z,101118.75
2023-03-26T21:49:03.521Z,101120.78
2023-03-26T21:51:34.032Z,101135.00
2023-03-26T21:54:03.764Z,101140.44
2023-03-26T21:56:58.311Z,101139.69
2023-03-26T21:59:45.660Z,101136.97
2023-03-26T22:02:20.812Z,101140.38
2023-03-26T22:05:01.058Z,101138.44
2023-03-26T22:07:58.605Z,101153.09
2023-03-26T22:10:29.470Z,101158.53
2023-03-26T22:12:59.203Z,101147.38
2023-03-26T22:15:31.059Z,101166.94
2023-03-26T22:18:01.842Z,101167.44
2023-03-26T22:20:30.444Z,101173.78
2023-03-26T22:23:00.476Z,101175.41
2023-03-26T22:25:29.162Z,101182.72
2023-03-26T22:27:57.635Z,101177.38
2023-03-26T22:30:27.293Z,101183.22
2023-03-26T22:32:55.896Z,101193.13
2023-03-26T22:35:26.052Z,101194.41
2023-03-26T22:38:00.831Z,101193.84
2023-03-26T22:40:29.676Z,101195.22
2023-03-26T22:42:58.228Z,101201.16
2023-03-26T22:45:27.824Z,101215.19
2023-03-26T22:48:03.003Z,101227.16
2023-03-26T22:50:32.858Z,101227.31
2023-03-26T22:53:01.630Z,101234.63
2023-03-26T22:55:30.253Z,101239.09
2023-03-26T22:57:58.868Z,101250.22
2023-03-26T23:00:27.745Z,101244.63
2023-03-26T23:03:00.003Z,101246.47
2023-03-26T23:05:29.450Z,101247.72
2023-03-26T23:07:57.904Z,101266.47
2023-03-26T23:10:26.497Z,101269.69
2023-03-26T23:12:54.962Z,101275.59
2023-03-26T23:15:25.781Z,101267.44
2023-03-26T23:17:55.305Z,101287.56
2023-03-26T23:20:23.967Z,101287.16
2023-03-26T23:22:52.593Z,101288.94
2023-03-26T23:25:21.215Z,101297.09
2023-03-26T23:27:50.618Z,101303.13
2023-03-26T23:30:19.504Z,101305.13
2023-03-26T23:32:48.047Z,101306.44
2023-03-26T23:35:16.575Z,101312.03
2023-03-26T23:37:45.011Z,101310.22
2023-03-26T23:40:13.749Z,101318.69
2023-03-26T23:42:42.649Z,101319.25
2023-03-26T23:45:12.222Z,101324.31
2023-03-26T23:47:42.260Z,101329.38
2023-03-26T23:50:11.539Z,101336.00
2023-03-26T23:52:40.009Z,101335.56
2023-03-26T23:55:08.786Z,101337.69
2023-03-26T23:57:37.293Z,101347.34
